Terminal Aerodrome Forecast
Issued by NWS Shreveport, LA

Home | Current Version | Previous Version | Text Only | Print | Product List | Glossary On
Versions: 1 2 3 4 5 6 7 8 9 10 11 12 13 14 15
000
FTUS44 KSHV 290526
TAFSHV
TAF
KSHV 290526Z 2906/3006 09010KT P6SM SKC
      TEMPO 2911/2915 BKN015
     FM291500 17008KT P6SM BKN025 OVC050
     FM291800 20014G20KT P6SM FEW050 BKN250
     FM300000 19007KT P6SM BKN250=

USA.gov is the U.S. government's official web portal to all federal, state and local government web resources and services.